KDLF/DLF METAR and TAF weather

Enter ICAO airport designator
Station Type Date Time Source
KDLF METAR 2020/04/04 20:25 UTC NOAA

KDLF 042025Z 34010KT 10SM OVC007 12/11 A2998 RMK AO2A SLP150 $


Station Type Date Time Source
KDLF Decoded METAR 2020/04/04 20:25 UTC NOAA

Laughlin, Laughlin Air Force Base Auxiliary Airfield, TX, United States (KDLF) 29-07-00N 100-28-00W 294M
Apr 04, 2020 - 04:25 PM EDT / 2020.04.04 2025 UTC
Wind: from the NNW (340 degrees) at 12 MPH (10 KT):0
Visibility: 10 mile(s):0
Sky conditions: overcast
Temperature: 53 F (12 C)
Dew Point: 51 F (11 C)
Relative Humidity: 93%
Pressure (altimeter): 29.98 in. Hg (1015 hPa)
ob: KDLF 042025Z 34010KT 10SM OVC007 12/11 A2998 RMK AO2A SLP150
cycle: 20

Station Type Date Time Source
KDLF TAF 2020/04/04 20:33 UTC NOAA

TAF KDLF 042025Z 0420/0524 33006KT 8000 -DZ BKN007 BKN015 QNH2994INS
BECMG 0423/0500 02006KT 9000 -DZ VCSH BKN007 QNH2995INS
BECMG 0514/0515 14006KT 8000 BR BKN007 BKN015 QNH3000INS TX15/0422Z TN12/0420Z

Example: see airport list